sensor_id;sensor_type;location;lat;lon;timestamp;temperature;humidity
48860;DHT22;34679;51.436;-2.518;2022-12-04T00:01:36;4.80;99.90
48860;DHT22;34679;51.436;-2.518;2022-12-04T00:04:02;4.90;99.90
48860;DHT22;34679;51.436;-2.518;2022-12-04T00:06:28;4.90;99.90
48860;DHT22;34679;51.436;-2.518;2022-12-04T00:08:54;4.80;99.90
48860;DHT22;34679;51.436;-2.518;2022-12-04T00:11:24;4.80;99.90
48860;DHT22;34679;51.436;-2.518;2022-12-04T00:13:51;4.90;99.90
48860;DHT22;34679;51.436;-2.518;2022-12-04T00:16:20;4.80;99.90
48860;DHT22;34679;51.436;-2.518;2022-12-04T00:18:46;4.80;99.90
48860;DHT22;34679;51.436;-2.518;2022-12-04T00:21:15;4.80;99.90
48860;DHT22;34679;51.436;-2.518;2022-12-04T00:23:42;4.80;99.90
48860;DHT22;34679;51.436;-2.518;2022-12-04T00:26:14;4.90;99.90
48860;DHT22;34679;51.436;-2.518;2022-12-04T00:28:40;4.80;99.90
48860;DHT22;34679;51.436;-2.518;2022-12-04T00:31:08;4.80;99.90
48860;DHT22;34679;51.436;-2.518;2022-12-04T00:33:35;4.80;99.90
48860;DHT22;34679;51.436;-2.518;2022-12-04T00:36:04;4.70;99.90
48860;DHT22;34679;51.436;-2.518;2022-12-04T00:38:30;4.80;99.90
48860;DHT22;34679;51.436;-2.518;2022-12-04T00:40:55;4.70;99.90
48860;DHT22;34679;51.436;-2.518;2022-12-04T00:43:22;4.60;99.90
48860;DHT22;34679;51.436;-2.518;2022-12-04T00:45:48;4.60;99.90
48860;DHT22;34679;51.436;-2.518;2022-12-04T00:48:14;4.60;99.90
48860;DHT22;34679;51.436;-2.518;2022-12-04T00:50:40;4.60;99.90
48860;DHT22;34679;51.436;-2.518;2022-12-04T00:53:06;4.50;99.90
48860;DHT22;34679;51.436;-2.518;2022-12-04T00:55:31;4.60;99.90
48860;DHT22;34679;51.436;-2.518;2022-12-04T00:57:57;4.60;99.90
48860;DHT22;34679;51.436;-2.518;2022-12-04T01:00:23;4.60;99.90
48860;DHT22;34679;51.436;-2.518;2022-12-04T01:02:49;4.60;99.90
48860;DHT22;34679;51.436;-2.518;2022-12-04T01:05:14;4.70;99.90
48860;DHT22;34679;51.436;-2.518;2022-12-04T01:07:40;4.70;99.90
48860;DHT22;34679;51.436;-2.518;2022-12-04T01:10:07;4.80;99.90
48860;DHT22;34679;51.436;-2.518;2022-12-04T01:12:33;4.80;99.90
48860;DHT22;34679;51.436;-2.518;2022-12-04T01:14:59;4.80;99.90
48860;DHT22;34679;51.436;-2.518;2022-12-04T01:17:25;4.70;99.90
48860;DHT22;34679;51.436;-2.518;2022-12-04T01:19:50;4.80;99.90
48860;DHT22;34679;51.436;-2.518;2022-12-04T01:22:16;4.90;99.90
48860;DHT22;34679;51.436;-2.518;2022-12-04T01:24:42;4.90;99.90
48860;DHT22;34679;51.436;-2.518;2022-12-04T01:27:07;4.90;99.90
48860;DHT22;34679;51.436;-2.518;2022-12-04T01:29:33;4.90;99.90
48860;DHT22;34679;51.436;-2.518;2022-12-04T01:31:59;4.90;99.90
48860;DHT22;34679;51.436;-2.518;2022-12-04T01:34:25;4.90;99.90
48860;DHT22;34679;51.436;-2.518;2022-12-04T01:36:51;5.00;99.90
48860;DHT22;34679;51.436;-2.518;2022-12-04T01:39:17;4.90;99.90
48860;DHT22;34679;51.436;-2.518;2022-12-04T01:41:43;5.00;99.90
48860;DHT22;34679;51.436;-2.518;2022-12-04T01:44:15;4.90;99.90
48860;DHT22;34679;51.436;-2.518;2022-12-04T01:46:48;4.80;99.90
48860;DHT22;34679;51.436;-2.518;2022-12-04T01:49:20;4.70;99.90
48860;DHT22;34679;51.436;-2.518;2022-12-04T01:51:51;4.70;99.90
48860;DHT22;34679;51.436;-2.518;2022-12-04T01:54:28;4.60;99.90
48860;DHT22;34679;51.436;-2.518;2022-12-04T01:57:01;4.50;99.90
48860;DHT22;34679;51.436;-2.518;2022-12-04T01:59:28;4.50;99.90
48860;DHT22;34679;51.436;-2.518;2022-12-04T02:02:06;4.40;99.90
48860;DHT22;34679;51.436;-2.518;2022-12-04T02:04:33;4.40;99.90
48860;DHT22;34679;51.436;-2.518;2022-12-04T02:07:00;4.30;99.90
48860;DHT22;34679;51.436;-2.518;2022-12-04T02:09:26;4.30;99.90
48860;DHT22;34679;51.436;-2.518;2022-12-04T02:17:10;4.40;99.90
48860;DHT22;34679;51.436;-2.518;2022-12-04T02:22:09;4.40;99.90
48860;DHT22;34679;51.436;-2.518;2022-12-04T02:30:06;4.30;99.90
48860;DHT22;34679;51.436;-2.518;2022-12-04T02:35:03;4.20;99.90
48860;DHT22;34679;51.436;-2.518;2022-12-04T02:37:37;4.00;99.90
48860;DHT22;34679;51.436;-2.518;2022-12-04T02:40:16;3.90;99.90
48860;DHT22;34679;51.436;-2.518;2022-12-04T02:43:11;3.80;99.90
48860;DHT22;34679;51.436;-2.518;2022-12-04T02:46:00;3.60;99.90
48860;DHT22;34679;51.436;-2.518;2022-12-04T02:48:30;3.50;99.90
48860;DHT22;34679;51.436;-2.518;2022-12-04T02:50:59;3.60;99.90
48860;DHT22;34679;51.436;-2.518;2022-12-04T02:53:32;3.60;99.90
48860;DHT22;34679;51.436;-2.518;2022-12-04T02:56:14;3.50;99.90
48860;DHT22;34679;51.436;-2.518;2022-12-04T02:59:00;3.40;99.90
48860;DHT22;34679;51.436;-2.518;2022-12-04T03:01:33;3.40;99.90
48860;DHT22;34679;51.436;-2.518;2022-12-04T03:04:09;3.30;99.90
48860;DHT22;34679;51.436;-2.518;2022-12-04T03:06:39;3.30;99.90
48860;DHT22;34679;51.436;-2.518;2022-12-04T03:11:39;3.10;99.90
48860;DHT22;34679;51.436;-2.518;2022-12-04T03:14:11;3.10;99.90
48860;DHT22;34679;51.436;-2.518;2022-12-04T03:16:40;3.00;99.90
48860;DHT22;34679;51.436;-2.518;2022-12-04T03:19:15;2.90;99.90
48860;DHT22;34679;51.436;-2.518;2022-12-04T03:21:53;2.80;99.90
48860;DHT22;34679;51.436;-2.518;2022-12-04T03:24:32;2.70;99.90
48860;DHT22;34679;51.436;-2.518;2022-12-04T03:29:34;2.70;99.90
48860;DHT22;34679;51.436;-2.518;2022-12-04T03:32:18;2.80;99.90
48860;DHT22;34679;51.436;-2.518;2022-12-04T03:34:57;2.80;99.90
48860;DHT22;34679;51.436;-2.518;2022-12-04T03:37:47;2.90;99.90
48860;DHT22;34679;51.436;-2.518;2022-12-04T03:40:53;3.00;99.90
48860;DHT22;34679;51.436;-2.518;2022-12-04T03:46:16;3.10;99.90
48860;DHT22;34679;51.436;-2.518;2022-12-04T03:51:47;3.10;99.90
48860;DHT22;34679;51.436;-2.518;2022-12-04T03:54:19;3.20;99.90
48860;DHT22;34679;51.436;-2.518;2022-12-04T03:57:02;3.30;99.90
48860;DHT22;34679;51.436;-2.518;2022-12-04T03:59:37;3.20;99.90
48860;DHT22;34679;51.436;-2.518;2022-12-04T04:02:04;3.30;99.90
48860;DHT22;34679;51.436;-2.518;2022-12-04T04:04:35;3.30;99.90
48860;DHT22;34679;51.436;-2.518;2022-12-04T04:07:31;3.20;99.90
48860;DHT22;34679;51.436;-2.518;2022-12-04T04:09:57;3.20;99.90
48860;DHT22;34679;51.436;-2.518;2022-12-04T04:12:27;3.20;99.90
48860;DHT22;34679;51.436;-2.518;2022-12-04T04:14:59;3.30;99.90
48860;DHT22;34679;51.436;-2.518;2022-12-04T04:17:46;3.30;99.90
48860;DHT22;34679;51.436;-2.518;2022-12-04T04:20:42;3.30;99.90
48860;DHT22;34679;51.436;-2.518;2022-12-04T04:23:30;3.30;99.90
48860;DHT22;34679;51.436;-2.518;2022-12-04T04:26:16;3.30;99.90
48860;DHT22;34679;51.436;-2.518;2022-12-04T04:28:43;3.30;99.90
48860;DHT22;34679;51.436;-2.518;2022-12-04T04:31:17;3.30;99.90
48860;DHT22;34679;51.436;-2.518;2022-12-04T04:34:00;3.30;99.90
48860;DHT22;34679;51.436;-2.518;2022-12-04T04:36:40;3.30;99.90
48860;DHT22;34679;51.436;-2.518;2022-12-04T04:39:33;3.30;99.90
48860;DHT22;34679;51.436;-2.518;2022-12-04T04:42:15;3.30;99.90
48860;DHT22;34679;51.436;-2.518;2022-12-04T04:48:08;3.30;99.90
48860;DHT22;34679;51.436;-2.518;2022-12-04T04:50:36;3.30;99.90
48860;DHT22;34679;51.436;-2.518;2022-12-04T04:53:11;3.30;99.90
48860;DHT22;34679;51.436;-2.518;2022-12-04T04:55:38;3.30;99.90
48860;DHT22;34679;51.436;-2.518;2022-12-04T04:58:09;3.40;99.90
48860;DHT22;34679;51.436;-2.518;2022-12-04T05:00:36;3.30;99.90
48860;DHT22;34679;51.436;-2.518;2022-12-04T05:03:02;3.30;99.90
48860;DHT22;34679;51.436;-2.518;2022-12-04T05:05:28;3.30;99.90
48860;DHT22;34679;51.436;-2.518;2022-12-04T05:07:53;3.20;99.90
48860;DHT22;34679;51.436;-2.518;2022-12-04T05:10:19;3.30;99.90
48860;DHT22;34679;51.436;-2.518;2022-12-04T05:12:44;3.30;99.90
48860;DHT22;34679;51.436;-2.518;2022-12-04T05:15:10;3.30;99.90
48860;DHT22;34679;51.436;-2.518;2022-12-04T05:17:36;3.30;99.90
48860;DHT22;34679;51.436;-2.518;2022-12-04T05:20:03;3.20;99.90
48860;DHT22;34679;51.436;-2.518;2022-12-04T05:22:31;3.30;99.90
48860;DHT22;34679;51.436;-2.518;2022-12-04T05:24:57;3.30;99.90
48860;DHT22;34679;51.436;-2.518;2022-12-04T05:27:24;3.30;99.90
48860;DHT22;34679;51.436;-2.518;2022-12-04T05:29:57;3.30;99.90
48860;DHT22;34679;51.436;-2.518;2022-12-04T05:32:24;3.30;99.90
48860;DHT22;34679;51.436;-2.518;2022-12-04T05:34:51;3.30;99.90
48860;DHT22;34679;51.436;-2.518;2022-12-04T05:37:17;3.40;99.90
48860;DHT22;34679;51.436;-2.518;2022-12-04T05:39:43;3.40;99.90
48860;DHT22;34679;51.436;-2.518;2022-12-04T05:42:10;3.40;99.90
48860;DHT22;34679;51.436;-2.518;2022-12-04T05:44:35;3.40;99.90
48860;DHT22;34679;51.436;-2.518;2022-12-04T05:47:01;3.50;99.90
48860;DHT22;34679;51.436;-2.518;2022-12-04T05:49:33;3.50;99.90
48860;DHT22;34679;51.436;-2.518;2022-12-04T05:52:02;3.60;99.90
48860;DHT22;34679;51.436;-2.518;2022-12-04T05:54:28;3.50;99.90
48860;DHT22;34679;51.436;-2.518;2022-12-04T05:56:54;3.40;99.90
48860;DHT22;34679;51.436;-2.518;2022-12-04T05:59:19;3.50;99.90
48860;DHT22;34679;51.436;-2.518;2022-12-04T06:01:45;3.50;99.90
48860;DHT22;34679;51.436;-2.518;2022-12-04T06:04:11;3.50;99.90
48860;DHT22;34679;51.436;-2.518;2022-12-04T06:06:37;3.50;99.90
48860;DHT22;34679;51.436;-2.518;2022-12-04T06:09:05;3.60;99.90
48860;DHT22;34679;51.436;-2.518;2022-12-04T06:11:33;3.60;99.90
48860;DHT22;34679;51.436;-2.518;2022-12-04T06:14:01;3.70;99.90
48860;DHT22;34679;51.436;-2.518;2022-12-04T06:16:30;3.60;99.90
48860;DHT22;34679;51.436;-2.518;2022-12-04T06:18:58;3.70;99.90
48860;DHT22;34679;51.436;-2.518;2022-12-04T06:21:25;3.70;99.90
48860;DHT22;34679;51.436;-2.518;2022-12-04T06:23:52;3.70;99.90
48860;DHT22;34679;51.436;-2.518;2022-12-04T06:26:19;3.80;99.90
48860;DHT22;34679;51.436;-2.518;2022-12-04T06:28:45;3.80;99.90
48860;DHT22;34679;51.436;-2.518;2022-12-04T06:31:13;3.90;99.90
48860;DHT22;34679;51.436;-2.518;2022-12-04T06:33:39;3.90;99.90
48860;DHT22;34679;51.436;-2.518;2022-12-04T06:36:10;3.90;99.90
48860;DHT22;34679;51.436;-2.518;2022-12-04T06:38:37;3.80;99.90
48860;DHT22;34679;51.436;-2.518;2022-12-04T06:41:03;3.80;99.90
48860;DHT22;34679;51.436;-2.518;2022-12-04T06:43:30;3.80;99.90
48860;DHT22;34679;51.436;-2.518;2022-12-04T06:46:17;3.90;99.90
48860;DHT22;34679;51.436;-2.518;2022-12-04T06:48:44;3.90;99.90
48860;DHT22;34679;51.436;-2.518;2022-12-04T06:51:18;3.90;99.90
48860;DHT22;34679;51.436;-2.518;2022-12-04T06:53:45;3.80;99.90
48860;DHT22;34679;51.436;-2.518;2022-12-04T06:56:13;3.90;99.90
48860;DHT22;34679;51.436;-2.518;2022-12-04T06:58:49;3.80;99.90
48860;DHT22;34679;51.436;-2.518;2022-12-04T07:01:17;3.80;99.90
48860;DHT22;34679;51.436;-2.518;2022-12-04T07:03:44;3.80;99.90
48860;DHT22;34679;51.436;-2.518;2022-12-04T07:06:21;3.80;99.90
48860;DHT22;34679;51.436;-2.518;2022-12-04T07:08:53;3.70;99.90
48860;DHT22;34679;51.436;-2.518;2022-12-04T07:11:20;3.80;99.90
48860;DHT22;34679;51.436;-2.518;2022-12-04T07:13:47;3.80;99.90
48860;DHT22;34679;51.436;-2.518;2022-12-04T07:16:15;3.80;99.90
48860;DHT22;34679;51.436;-2.518;2022-12-04T07:18:41;3.90;99.90
48860;DHT22;34679;51.436;-2.518;2022-12-04T07:21:08;3.80;99.90
48860;DHT22;34679;51.436;-2.518;2022-12-04T07:23:35;3.80;99.90
48860;DHT22;34679;51.436;-2.518;2022-12-04T07:26:09;3.80;99.90
48860;DHT22;34679;51.436;-2.518;2022-12-04T07:28:35;3.80;99.90
48860;DHT22;34679;51.436;-2.518;2022-12-04T07:31:10;3.80;99.90
48860;DHT22;34679;51.436;-2.518;2022-12-04T07:33:36;3.90;99.90
48860;DHT22;34679;51.436;-2.518;2022-12-04T07:36:05;3.90;99.90
48860;DHT22;34679;51.436;-2.518;2022-12-04T07:38:31;3.90;99.90
48860;DHT22;34679;51.436;-2.518;2022-12-04T07:40:58;3.90;99.90
48860;DHT22;34679;51.436;-2.518;2022-12-04T07:43:25;3.90;99.90
48860;DHT22;34679;51.436;-2.518;2022-12-04T07:45:51;3.90;99.90
48860;DHT22;34679;51.436;-2.518;2022-12-04T07:48:17;3.90;99.90
48860;DHT22;34679;51.436;-2.518;2022-12-04T07:50:43;3.90;99.90
48860;DHT22;34679;51.436;-2.518;2022-12-04T07:53:09;3.80;99.90
48860;DHT22;34679;51.436;-2.518;2022-12-04T07:55:35;3.90;99.90
48860;DHT22;34679;51.436;-2.518;2022-12-04T07:58:00;3.90;99.90
48860;DHT22;34679;51.436;-2.518;2022-12-04T08:00:26;3.80;99.90
48860;DHT22;34679;51.436;-2.518;2022-12-04T08:02:52;3.80;99.90
48860;DHT22;34679;51.436;-2.518;2022-12-04T08:05:18;3.80;99.90
48860;DHT22;34679;51.436;-2.518;2022-12-04T08:07:43;3.70;99.90
48860;DHT22;34679;51.436;-2.518;2022-12-04T08:10:09;3.70;99.90
48860;DHT22;34679;51.436;-2.518;2022-12-04T08:12:35;3.70;99.90
48860;DHT22;34679;51.436;-2.518;2022-12-04T08:15:01;3.70;99.90
48860;DHT22;34679;51.436;-2.518;2022-12-04T08:17:27;3.70;99.90
48860;DHT22;34679;51.436;-2.518;2022-12-04T08:19:53;3.70;99.90
48860;DHT22;34679;51.436;-2.518;2022-12-04T08:22:18;3.70;99.90
48860;DHT22;34679;51.436;-2.518;2022-12-04T08:24:44;3.70;99.90
48860;DHT22;34679;51.436;-2.518;2022-12-04T08:27:10;3.70;99.90
48860;DHT22;34679;51.436;-2.518;2022-12-04T08:29:36;3.60;99.90
48860;DHT22;34679;51.436;-2.518;2022-12-04T08:32:02;3.60;99.90
48860;DHT22;34679;51.436;-2.518;2022-12-04T08:34:28;3.60;99.90
48860;DHT22;34679;51.436;-2.518;2022-12-04T08:36:53;3.60;99.90
48860;DHT22;34679;51.436;-2.518;2022-12-04T08:39:19;3.60;99.90
48860;DHT22;34679;51.436;-2.518;2022-12-04T08:41:46;3.60;99.90
48860;DHT22;34679;51.436;-2.518;2022-12-04T08:44:12;3.60;99.90
48860;DHT22;34679;51.436;-2.518;2022-12-04T08:46:38;3.60;99.90
48860;DHT22;34679;51.436;-2.518;2022-12-04T08:49:04;3.60;99.90
48860;DHT22;34679;51.436;-2.518;2022-12-04T08:51:31;4.70;99.90
48860;DHT22;34679;51.436;-2.518;2022-12-04T08:54:04;3.60;99.90
48860;DHT22;34679;51.436;-2.518;2022-12-04T08:56:31;3.60;99.90
48860;DHT22;34679;51.436;-2.518;2022-12-04T08:58:58;3.60;99.90
48860;DHT22;34679;51.436;-2.518;2022-12-04T09:01:24;3.60;99.90
48860;DHT22;34679;51.436;-2.518;2022-12-04T09:03:50;3.60;99.90
48860;DHT22;34679;51.436;-2.518;2022-12-04T09:06:17;3.70;99.90
48860;DHT22;34679;51.436;-2.518;2022-12-04T09:08:43;3.70;99.90
48860;DHT22;34679;51.436;-2.518;2022-12-04T09:11:20;3.70;99.90
48860;DHT22;34679;51.436;-2.518;2022-12-04T09:13:46;3.70;99.90
48860;DHT22;34679;51.436;-2.518;2022-12-04T09:16:15;3.60;99.90
48860;DHT22;34679;51.436;-2.518;2022-12-04T09:18:42;3.60;99.90
48860;DHT22;34679;51.436;-2.518;2022-12-04T09:21:10;3.80;99.90
48860;DHT22;34679;51.436;-2.518;2022-12-04T09:23:37;3.60;99.90
48860;DHT22;34679;51.436;-2.518;2022-12-04T09:26:04;3.60;99.90
48860;DHT22;34679;51.436;-2.518;2022-12-04T09:28:30;3.60;99.90
48860;DHT22;34679;51.436;-2.518;2022-12-04T09:31:02;3.60;99.90
48860;DHT22;34679;51.436;-2.518;2022-12-04T09:33:28;3.50;99.90
48860;DHT22;34679;51.436;-2.518;2022-12-04T09:35:57;3.50;99.90
48860;DHT22;34679;51.436;-2.518;2022-12-04T09:38:22;3.50;99.90
48860;DHT22;34679;51.436;-2.518;2022-12-04T09:44:00;3.60;99.90
48860;DHT22;34679;51.436;-2.518;2022-12-04T09:49:44;3.50;99.90
48860;DHT22;34679;51.436;-2.518;2022-12-04T09:55:02;3.60;99.90
48860;DHT22;34679;51.436;-2.518;2022-12-04T09:57:36;3.70;99.90
48860;DHT22;34679;51.436;-2.518;2022-12-04T10:00:12;3.70;99.90
48860;DHT22;34679;51.436;-2.518;2022-12-04T10:02:40;3.70;99.90
48860;DHT22;34679;51.436;-2.518;2022-12-04T10:13:38;3.80;99.90
48860;DHT22;34679;51.436;-2.518;2022-12-04T10:27:00;3.80;99.90
48860;DHT22;34679;51.436;-2.518;2022-12-04T10:29:30;3.90;99.90
48860;DHT22;34679;51.436;-2.518;2022-12-04T10:32:04;3.90;99.90
48860;DHT22;34679;51.436;-2.518;2022-12-04T10:34:30;3.90;99.90
48860;DHT22;34679;51.436;-2.518;2022-12-04T10:37:00;4.00;99.90
48860;DHT22;34679;51.436;-2.518;2022-12-04T10:39:36;4.00;99.90
48860;DHT22;34679;51.436;-2.518;2022-12-04T10:44:32;4.00;99.90
48860;DHT22;34679;51.436;-2.518;2022-12-04T10:47:00;4.10;99.90
48860;DHT22;34679;51.436;-2.518;2022-12-04T10:49:28;4.00;99.90
48860;DHT22;34679;51.436;-2.518;2022-12-04T10:51:55;4.00;99.90
48860;DHT22;34679;51.436;-2.518;2022-12-04T10:57:13;4.10;99.90
48860;DHT22;34679;51.436;-2.518;2022-12-04T10:59:53;4.10;99.90
48860;DHT22;34679;51.436;-2.518;2022-12-04T11:02:25;4.00;99.90
48860;DHT22;34679;51.436;-2.518;2022-12-04T11:07:35;4.10;99.90
48860;DHT22;34679;51.436;-2.518;2022-12-04T11:15:28;4.00;99.90
48860;DHT22;34679;51.436;-2.518;2022-12-04T11:17:54;4.00;99.90
48860;DHT22;34679;51.436;-2.518;2022-12-04T11:20:30;4.00;99.90
48860;DHT22;34679;51.436;-2.518;2022-12-04T11:22:57;4.10;99.90
48860;DHT22;34679;51.436;-2.518;2022-12-04T11:25:36;4.10;99.90
48860;DHT22;34679;51.436;-2.518;2022-12-04T11:28:03;4.10;99.90
48860;DHT22;34679;51.436;-2.518;2022-12-04T11:30:37;4.10;99.90
48860;DHT22;34679;51.436;-2.518;2022-12-04T11:33:06;4.10;99.90
48860;DHT22;34679;51.436;-2.518;2022-12-04T11:35:38;4.10;99.90
48860;DHT22;34679;51.436;-2.518;2022-12-04T11:38:12;4.20;99.90
48860;DHT22;34679;51.436;-2.518;2022-12-04T11:40:39;4.20;99.90
48860;DHT22;34679;51.436;-2.518;2022-12-04T11:45:35;4.30;99.90
48860;DHT22;34679;51.436;-2.518;2022-12-04T11:48:11;4.20;99.90
48860;DHT22;34679;51.436;-2.518;2022-12-04T11:51:05;4.30;99.90
48860;DHT22;34679;51.436;-2.518;2022-12-04T12:09:39;4.30;99.90
48860;DHT22;34679;51.436;-2.518;2022-12-04T12:17:49;4.40;99.90
48860;DHT22;34679;51.436;-2.518;2022-12-04T12:23:19;4.40;99.90
48860;DHT22;34679;51.436;-2.518;2022-12-04T12:26:03;4.40;99.90
48860;DHT22;34679;51.436;-2.518;2022-12-04T12:34:04;4.40;99.90
48860;DHT22;34679;51.436;-2.518;2022-12-04T12:36:37;4.50;99.90
48860;DHT22;34679;51.436;-2.518;2022-12-04T12:39:38;4.50;99.90
48860;DHT22;34679;51.436;-2.518;2022-12-04T12:42:06;4.50;99.90
48860;DHT22;34679;51.436;-2.518;2022-12-04T12:45:02;4.50;99.90
48860;DHT22;34679;51.436;-2.518;2022-12-04T12:47:41;4.50;99.90
48860;DHT22;34679;51.436;-2.518;2022-12-04T12:50:20;4.50;99.90
48860;DHT22;34679;51.436;-2.518;2022-12-04T13:00:41;4.50;99.90
48860;DHT22;34679;51.436;-2.518;2022-12-04T13:05:57;4.50;99.90
48860;DHT22;34679;51.436;-2.518;2022-12-04T13:08:41;4.50;99.90
48860;DHT22;34679;51.436;-2.518;2022-12-04T13:11:15;4.60;99.90
48860;DHT22;34679;51.436;-2.518;2022-12-04T13:13:55;4.60;99.90
48860;DHT22;34679;51.436;-2.518;2022-12-04T13:38:58;4.70;99.90
48860;DHT22;34679;51.436;-2.518;2022-12-04T13:41:27;4.80;99.90
48860;DHT22;34679;51.436;-2.518;2022-12-04T13:43:56;4.70;99.90
48860;DHT22;34679;51.436;-2.518;2022-12-04T13:46:24;4.70;99.90
48860;DHT22;34679;51.436;-2.518;2022-12-04T13:48:51;4.80;99.90
48860;DHT22;34679;51.436;-2.518;2022-12-04T13:51:36;4.80;99.90
48860;DHT22;34679;51.436;-2.518;2022-12-04T13:54:20;4.80;99.90
48860;DHT22;34679;51.436;-2.518;2022-12-04T13:56:52;4.80;99.90
48860;DHT22;34679;51.436;-2.518;2022-12-04T14:01:51;4.90;99.90
48860;DHT22;34679;51.436;-2.518;2022-12-04T14:04:31;4.90;99.90
48860;DHT22;34679;51.436;-2.518;2022-12-04T14:06:59;4.90;99.90
48860;DHT22;34679;51.436;-2.518;2022-12-04T14:09:32;5.00;99.90
48860;DHT22;34679;51.436;-2.518;2022-12-04T14:12:02;4.80;99.90
48860;DHT22;34679;51.436;-2.518;2022-12-04T14:17:03;4.90;99.90
48860;DHT22;34679;51.436;-2.518;2022-12-04T14:19:38;4.90;99.90
48860;DHT22;34679;51.436;-2.518;2022-12-04T14:22:05;4.90;99.90
48860;DHT22;34679;51.436;-2.518;2022-12-04T14:24:49;4.80;99.90
48860;DHT22;34679;51.436;-2.518;2022-12-04T14:27:53;4.80;99.90
48860;DHT22;34679;51.436;-2.518;2022-12-04T14:30:32;4.90;99.90
48860;DHT22;34679;51.436;-2.518;2022-12-04T14:33:29;4.90;99.90
48860;DHT22;34679;51.436;-2.518;2022-12-04T14:36:06;4.80;99.90
48860;DHT22;34679;51.436;-2.518;2022-12-04T14:38:33;4.80;99.90
48860;DHT22;34679;51.436;-2.518;2022-12-04T14:40:59;4.90;99.90
48860;DHT22;34679;51.436;-2.518;2022-12-04T14:43:39;4.90;99.90
48860;DHT22;34679;51.436;-2.518;2022-12-04T14:46:17;4.90;99.90
48860;DHT22;34679;51.436;-2.518;2022-12-04T14:49:17;4.90;99.90
48860;DHT22;34679;51.436;-2.518;2022-12-04T14:55:05;4.90;99.90
48860;DHT22;34679;51.436;-2.518;2022-12-04T14:57:57;4.80;99.90
48860;DHT22;34679;51.436;-2.518;2022-12-04T15:00:24;4.90;99.90
48860;DHT22;34679;51.436;-2.518;2022-12-04T15:03:01;4.90;99.90
48860;DHT22;34679;51.436;-2.518;2022-12-04T15:05:30;4.90;99.90
48860;DHT22;34679;51.436;-2.518;2022-12-04T15:08:01;4.90;99.90
48860;DHT22;34679;51.436;-2.518;2022-12-04T15:10:31;4.90;99.90
48860;DHT22;34679;51.436;-2.518;2022-12-04T15:15:52;4.90;99.90
48860;DHT22;34679;51.436;-2.518;2022-12-04T15:18:18;4.90;99.90
48860;DHT22;34679;51.436;-2.518;2022-12-04T15:23:16;4.90;99.90
48860;DHT22;34679;51.436;-2.518;2022-12-04T15:25:50;5.00;99.90
48860;DHT22;34679;51.436;-2.518;2022-12-04T15:28:21;5.00;99.90
48860;DHT22;34679;51.436;-2.518;2022-12-04T15:30:49;5.00;99.90
48860;DHT22;34679;51.436;-2.518;2022-12-04T15:33:21;5.00;99.90
48860;DHT22;34679;51.436;-2.518;2022-12-04T15:36:00;5.00;99.90
48860;DHT22;34679;51.436;-2.518;2022-12-04T15:38:27;4.90;99.90
48860;DHT22;34679;51.436;-2.518;2022-12-04T15:40:55;4.90;99.90
48860;DHT22;34679;51.436;-2.518;2022-12-04T15:43:29;5.00;99.90
48860;DHT22;34679;51.436;-2.518;2022-12-04T15:45:56;4.90;99.90
48860;DHT22;34679;51.436;-2.518;2022-12-04T15:48:26;4.90;99.90
48860;DHT22;34679;51.436;-2.518;2022-12-04T15:51:04;4.90;99.90
48860;DHT22;34679;51.436;-2.518;2022-12-04T15:53:32;4.90;99.90
48860;DHT22;34679;51.436;-2.518;2022-12-04T15:56:04;4.90;99.90
48860;DHT22;34679;51.436;-2.518;2022-12-04T15:58:33;5.00;99.90
48860;DHT22;34679;51.436;-2.518;2022-12-04T16:01:02;5.00;99.90
48860;DHT22;34679;51.436;-2.518;2022-12-04T16:03:30;5.00;99.90
48860;DHT22;34679;51.436;-2.518;2022-12-04T16:08:33;4.90;99.90
48860;DHT22;34679;51.436;-2.518;2022-12-04T16:11:04;5.00;99.90
48860;DHT22;34679;51.436;-2.518;2022-12-04T16:13:37;4.90;99.90
48860;DHT22;34679;51.436;-2.518;2022-12-04T16:16:09;4.90;99.90
48860;DHT22;34679;51.436;-2.518;2022-12-04T16:18:36;4.90;99.90
48860;DHT22;34679;51.436;-2.518;2022-12-04T16:21:02;4.90;99.90
48860;DHT22;34679;51.436;-2.518;2022-12-04T16:23:28;4.90;99.90
48860;DHT22;34679;51.436;-2.518;2022-12-04T16:25:56;5.00;99.90
48860;DHT22;34679;51.436;-2.518;2022-12-04T16:28:21;5.00;99.90
48860;DHT22;34679;51.436;-2.518;2022-12-04T16:30:49;5.00;99.90
48860;DHT22;34679;51.436;-2.518;2022-12-04T16:33:16;5.00;99.90
48860;DHT22;34679;51.436;-2.518;2022-12-04T16:35:42;5.00;99.90
48860;DHT22;34679;51.436;-2.518;2022-12-04T16:38:15;5.00;99.90
48860;DHT22;34679;51.436;-2.518;2022-12-04T16:40:43;5.00;99.90
48860;DHT22;34679;51.436;-2.518;2022-12-04T16:43:11;5.00;99.90
48860;DHT22;34679;51.436;-2.518;2022-12-04T16:45:43;5.00;99.90
48860;DHT22;34679;51.436;-2.518;2022-12-04T16:48:09;5.00;99.90
48860;DHT22;34679;51.436;-2.518;2022-12-04T16:50:35;5.00;99.90
48860;DHT22;34679;51.436;-2.518;2022-12-04T16:53:01;5.00;99.90
48860;DHT22;34679;51.436;-2.518;2022-12-04T16:55:39;5.00;99.90
48860;DHT22;34679;51.436;-2.518;2022-12-04T16:58:05;5.00;99.90
48860;DHT22;34679;51.436;-2.518;2022-12-04T17:00:32;5.00;99.90
48860;DHT22;34679;51.436;-2.518;2022-12-04T17:02:58;5.00;99.90
48860;DHT22;34679;51.436;-2.518;2022-12-04T17:05:26;4.90;99.90
48860;DHT22;34679;51.436;-2.518;2022-12-04T17:07:52;4.90;99.90
48860;DHT22;34679;51.436;-2.518;2022-12-04T17:10:19;4.90;99.90
48860;DHT22;34679;51.436;-2.518;2022-12-04T17:12:45;5.00;99.90
48860;DHT22;34679;51.436;-2.518;2022-12-04T17:15:11;4.90;99.90
48860;DHT22;34679;51.436;-2.518;2022-12-04T17:17:37;4.90;99.90
48860;DHT22;34679;51.436;-2.518;2022-12-04T17:20:10;4.90;99.90
48860;DHT22;34679;51.436;-2.518;2022-12-04T17:22:37;5.00;99.90
48860;DHT22;34679;51.436;-2.518;2022-12-04T17:25:04;5.00;99.90
48860;DHT22;34679;51.436;-2.518;2022-12-04T17:27:30;5.00;99.90
48860;DHT22;34679;51.436;-2.518;2022-12-04T17:29:55;4.90;99.90
48860;DHT22;34679;51.436;-2.518;2022-12-04T17:32:22;5.00;99.90
48860;DHT22;34679;51.436;-2.518;2022-12-04T17:34:47;5.10;99.90
48860;DHT22;34679;51.436;-2.518;2022-12-04T17:37:13;5.00;99.90
48860;DHT22;34679;51.436;-2.518;2022-12-04T17:39:39;5.00;99.90
48860;DHT22;34679;51.436;-2.518;2022-12-04T17:42:04;5.00;99.90
48860;DHT22;34679;51.436;-2.518;2022-12-04T17:44:30;5.00;99.90
48860;DHT22;34679;51.436;-2.518;2022-12-04T17:46:56;5.10;99.90
48860;DHT22;34679;51.436;-2.518;2022-12-04T17:49:21;5.10;99.90
48860;DHT22;34679;51.436;-2.518;2022-12-04T17:51:47;5.00;99.90
48860;DHT22;34679;51.436;-2.518;2022-12-04T17:54:13;5.10;99.90
48860;DHT22;34679;51.436;-2.518;2022-12-04T17:56:38;5.00;99.90
48860;DHT22;34679;51.436;-2.518;2022-12-04T17:59:04;5.10;99.90
48860;DHT22;34679;51.436;-2.518;2022-12-04T18:01:31;5.10;99.90
48860;DHT22;34679;51.436;-2.518;2022-12-04T18:04:00;5.00;99.90
48860;DHT22;34679;51.436;-2.518;2022-12-04T18:06:31;5.00;99.90
48860;DHT22;34679;51.436;-2.518;2022-12-04T18:08:57;5.10;99.90
48860;DHT22;34679;51.436;-2.518;2022-12-04T18:11:26;5.10;99.90
48860;DHT22;34679;51.436;-2.518;2022-12-04T18:13:57;5.10;99.90
48860;DHT22;34679;51.436;-2.518;2022-12-04T18:16:23;5.10;99.90
48860;DHT22;34679;51.436;-2.518;2022-12-04T18:18:52;5.10;99.90
48860;DHT22;34679;51.436;-2.518;2022-12-04T18:21:18;5.10;99.90
48860;DHT22;34679;51.436;-2.518;2022-12-04T18:23:43;5.10;99.90